createdAt,value
2019-02-19T00:00:03.865Z,47.80
2019-02-19T00:05:10.971Z,48.10
2019-02-19T00:10:16.462Z,48.10
2019-02-19T00:15:22.023Z,48.60
2019-02-19T00:20:27.606Z,49.30
2019-02-19T00:25:33.164Z,49.50
2019-02-19T00:30:38.722Z,49.40
2019-02-19T00:35:44.217Z,48.60
2019-02-19T00:40:49.675Z,47.50
2019-02-19T00:45:55.147Z,47.60
2019-02-19T00:50:59.866Z,48.40
2019-02-19T00:56:05.358Z,48.50
2019-02-19T01:01:10.923Z,47.50
2019-02-19T01:06:16.489Z,48.60
2019-02-19T01:11:22.106Z,48.90
2019-02-19T01:16:27.655Z,48.50
2019-02-19T01:21:33.197Z,48.20
2019-02-19T01:26:38.693Z,48.10
2019-02-19T01:31:44.169Z,47.50
2019-02-19T01:36:49.732Z,47.30
2019-02-19T01:41:55.211Z,48.90
2019-02-19T01:47:00.684Z,49.70
2019-02-19T01:52:06.171Z,50.10
2019-02-19T01:57:11.652Z,50.30
2019-02-19T02:02:17.117Z,49.30
2019-02-19T02:07:22.649Z,48.80
2019-02-19T02:12:28.143Z,48.50
2019-02-19T02:17:33.620Z,48.60
2019-02-19T02:22:39.083Z,49.20
2019-02-19T02:27:44.637Z,49.90
2019-02-19T02:32:50.180Z,52.00
2019-02-19T02:37:55.651Z,51.50
2019-02-19T02:43:01.124Z,50.70
2019-02-19T02:48:06.661Z,49.90
2019-02-19T02:53:12.145Z,48.30
2019-02-19T02:58:17.945Z,48.60
2019-02-19T03:03:23.404Z,48.70
2019-02-19T03:08:28.941Z,48.90
2019-02-19T03:13:34.420Z,49.60
2019-02-19T03:18:39.911Z,49.60
2019-02-19T03:23:46.347Z,49.60
2019-02-19T03:28:51.894Z,49.90
2019-02-19T03:33:57.443Z,50.20
2019-02-19T03:39:04.609Z,49.80
2019-02-19T03:44:10.166Z,49.60
2019-02-19T03:49:15.717Z,50.00
2019-02-19T03:54:21.285Z,50.40
2019-02-19T03:59:26.904Z,50.50
2019-02-19T04:04:32.387Z,51.20
2019-02-19T04:09:37.991Z,51.70
2019-02-19T04:14:43.537Z,51.90
2019-02-19T04:19:49.022Z,52.10
2019-02-19T04:24:54.505Z,51.30
2019-02-19T04:30:00.314Z,51.30
2019-02-19T04:35:07.974Z,51.00
2019-02-19T04:40:13.441Z,51.40
2019-02-19T04:45:18.920Z,53.30
2019-02-19T04:50:24.414Z,54.20
2019-02-19T04:55:29.885Z,53.40
2019-02-19T05:00:35.497Z,52.60
2019-02-19T05:05:40.985Z,52.70
2019-02-19T05:10:46.608Z,52.30
2019-02-19T05:15:52.105Z,52.00
2019-02-19T05:20:57.585Z,51.40
2019-02-19T05:26:03.146Z,50.60
2019-02-19T05:31:08.612Z,49.80
2019-02-19T05:36:14.159Z,49.10
2019-02-19T05:41:19.637Z,49.40
2019-02-19T05:46:25.116Z,49.80
2019-02-19T05:51:30.599Z,50.50
2019-02-19T05:56:37.142Z,52.20
2019-02-19T06:01:42.655Z,54.80
2019-02-19T06:06:48.414Z,56.30
2019-02-19T06:11:53.890Z,56.50
2019-02-19T06:16:59.497Z,56.20
2019-02-19T06:22:05.101Z,56.20
2019-02-19T06:27:10.563Z,55.10
2019-02-19T06:32:26.097Z,53.90
2019-02-19T06:37:31.588Z,52.90
2019-02-19T06:42:37.129Z,49.70
2019-02-19T06:47:42.613Z,43.70
2019-02-19T06:52:48.099Z,40.60
2019-02-19T06:57:53.588Z,38.50
2019-02-19T07:03:06.764Z,38.30
2019-02-19T07:08:12.323Z,37.60
2019-02-19T07:13:17.800Z,36.10
2019-02-19T07:18:23.277Z,36.00
2019-02-19T07:23:28.869Z,35.00
2019-02-19T07:28:34.488Z,34.90
2019-02-19T07:33:40.053Z,35.40
2019-02-19T07:38:45.620Z,35.10
2019-02-19T07:43:51.204Z,35.00
2019-02-19T07:48:56.756Z,35.10
2019-02-19T07:54:03.488Z,33.60
2019-02-19T07:59:08.990Z,33.40
2019-02-19T08:04:14.497Z,32.20
2019-02-19T08:09:20.297Z,32.20
2019-02-19T08:14:25.780Z,31.60
2019-02-19T08:19:31.393Z,30.70
2019-02-19T08:24:36.876Z,30.40
2019-02-19T08:29:42.432Z,30.30
2019-02-19T08:34:47.914Z,29.50
2019-02-19T08:39:53.454Z,28.70
2019-02-19T08:44:58.931Z,29.30
2019-02-19T08:50:06.364Z,29.20
2019-02-19T08:55:12.045Z,28.20
2019-02-19T09:00:17.701Z,27.10
2019-02-19T09:05:23.185Z,27.10
2019-02-19T09:10:28.672Z,27.00
2019-02-19T09:15:34.152Z,28.90
2019-02-19T09:20:39.850Z,29.10
2019-02-19T09:25:45.414Z,28.90
2019-02-19T09:30:50.976Z,30.50
2019-02-19T09:35:56.518Z,31.20
2019-02-19T09:41:02.077Z,30.80
2019-02-19T09:46:07.561Z,30.80
2019-02-19T09:51:13.492Z,31.70
2019-02-19T09:56:18.992Z,32.20
2019-02-19T10:01:24.475Z,31.70
2019-02-19T10:06:30.142Z,32.60
2019-02-19T10:11:35.639Z,33.70
2019-02-19T10:16:41.835Z,35.40
2019-02-19T10:21:47.845Z,35.20
2019-02-19T10:26:53.413Z,34.60
2019-02-19T10:31:58.968Z,39.20
2019-02-19T10:37:04.604Z,39.70
2019-02-19T10:42:10.086Z,39.60
2019-02-19T10:47:15.567Z,39.30
2019-02-19T10:52:21.111Z,39.90
2019-02-19T10:57:26.640Z,38.90
2019-02-19T11:02:32.125Z,39.30
2019-02-19T11:07:37.670Z,38.90
2019-02-19T11:12:43.216Z,38.90
2019-02-19T11:17:48.724Z,39.00
2019-02-19T11:22:55.285Z,39.00
2019-02-19T11:28:00.882Z,38.60
2019-02-19T11:33:06.375Z,38.30
2019-02-19T11:38:12.034Z,38.90
2019-02-19T11:43:17.696Z,38.40
2019-02-19T11:48:23.181Z,40.00
2019-02-19T11:53:28.666Z,40.80
2019-02-19T11:58:34.224Z,39.30
2019-02-19T12:03:39.717Z,39.30
2019-02-19T12:08:45.202Z,37.80
2019-02-19T12:13:50.830Z,38.20
2019-02-19T12:18:56.301Z,36.80
2019-02-19T12:24:01.937Z,37.00
2019-02-19T12:29:07.406Z,38.40
2019-02-19T12:34:12.921Z,35.80
2019-02-19T12:39:18.427Z,36.20
2019-02-19T12:44:23.919Z,36.20
2019-02-19T12:49:29.473Z,32.80
2019-02-19T12:54:35.041Z,30.20
2019-02-19T12:59:40.603Z,29.30
2019-02-19T13:04:46.092Z,27.90
2019-02-19T13:09:51.837Z,28.10
2019-02-19T13:14:57.333Z,29.10
2019-02-19T13:20:02.970Z,29.30
2019-02-19T13:25:10.759Z,28.30
2019-02-19T13:30:22.594Z,29.00
2019-02-19T13:35:28.155Z,29.10
2019-02-19T13:40:34.684Z,30.40
2019-02-19T13:45:40.290Z,33.50
2019-02-19T13:50:45.897Z,34.10
2019-02-19T13:55:53.082Z,35.60
2019-02-19T14:00:58.568Z,36.00
2019-02-19T14:06:04.121Z,38.10
2019-02-19T14:11:09.619Z,36.40
2019-02-19T14:16:16.761Z,35.70
2019-02-19T14:21:38.951Z,37.10
2019-02-19T14:27:03.371Z,37.70
2019-02-19T14:32:19.591Z,37.90
2019-02-19T14:37:29.725Z,37.70
2019-02-19T14:42:55.734Z,39.30
2019-02-19T14:48:08.688Z,39.50
2019-02-19T14:53:15.863Z,40.10
2019-02-19T14:58:39.300Z,40.20
2019-02-19T15:03:48.990Z,40.70
2019-02-19T15:09:02.170Z,39.90
2019-02-19T15:14:19.619Z,40.50
2019-02-19T15:19:27.815Z,41.60
2019-02-19T15:24:37.456Z,40.80
2019-02-19T15:29:44.586Z,41.80
2019-02-19T15:35:06.748Z,41.90
2019-02-19T15:40:22.791Z,41.60
2019-02-19T15:46:00.113Z,42.80
2019-02-19T15:51:10.096Z,44.20
2019-02-19T15:56:17.805Z,45.20
2019-02-19T16:01:40.197Z,45.60
2019-02-19T16:06:47.385Z,46.30
2019-02-19T16:11:54.573Z,46.50
2019-02-19T16:17:18.070Z,47.00
2019-02-19T16:22:28.061Z,46.60
2019-02-19T16:27:44.054Z,46.30
2019-02-19T16:32:51.254Z,46.60
2019-02-19T16:38:04.440Z,46.80
2019-02-19T16:43:17.483Z,46.10
2019-02-19T16:48:36.619Z,45.90
2019-02-19T16:53:59.039Z,45.50
2019-02-19T16:59:22.523Z,45.00
2019-02-19T17:04:38.700Z,44.70
2019-02-19T17:09:48.853Z,45.50
2019-02-19T17:14:59.287Z,46.80
2019-02-19T17:20:28.549Z,47.60
2019-02-19T17:25:32.370Z,46.90
2019-02-19T17:30:42.509Z,47.50
2019-02-19T17:35:55.146Z,48.10
2019-02-19T17:41:02.418Z,48.10
2019-02-19T17:46:09.731Z,48.50
2019-02-19T17:51:28.808Z,48.30
2019-02-19T17:56:35.957Z,48.50
2019-02-19T18:01:52.185Z,48.60
2019-02-19T18:07:15.901Z,48.70
2019-02-19T18:12:23.257Z,48.80
2019-02-19T18:17:30.450Z,49.10
2019-02-19T18:22:36.079Z,49.40
2019-02-19T18:27:41.715Z,49.40
2019-02-19T18:32:47.353Z,48.80
2019-02-19T18:37:52.842Z,49.20
2019-02-19T18:42:58.339Z,48.50
2019-02-19T18:48:03.978Z,48.70
2019-02-19T18:53:09.613Z,47.50
2019-02-19T18:58:15.109Z,46.70
2019-02-19T19:03:20.660Z,46.20
2019-02-19T19:08:26.291Z,47.70
2019-02-19T19:13:31.929Z,49.20
2019-02-19T19:18:37.619Z,49.30
2019-02-19T19:23:43.262Z,50.80
2019-02-19T19:28:48.752Z,51.40
2019-02-19T19:33:54.374Z,53.20
2019-02-19T19:39:00.006Z,53.00
2019-02-19T19:44:05.649Z,53.00
2019-02-19T19:49:12.078Z,52.70
2019-02-19T19:54:17.732Z,53.20
2019-02-19T19:59:24.321Z,55.00
2019-02-19T20:04:29.928Z,57.00
2019-02-19T20:09:35.597Z,58.20
2019-02-19T20:14:41.244Z,60.50
2019-02-19T20:19:46.946Z,60.70
2019-02-19T20:24:52.654Z,62.40
2019-02-19T20:29:59.544Z,64.90
2019-02-19T20:35:07.709Z,66.50
2019-02-19T20:40:13.449Z,67.10
2019-02-19T20:45:20.328Z,68.50
2019-02-19T20:50:26.025Z,69.00
2019-02-19T20:55:36.958Z,68.70
2019-02-19T21:00:38.816Z,68.60
2019-02-19T21:05:45.834Z,68.90
2019-02-19T21:10:51.322Z,69.50
2019-02-19T21:15:57.013Z,70.00
2019-02-19T21:21:02.590Z,69.50
2019-02-19T21:26:08.182Z,70.60
2019-02-19T21:31:13.735Z,69.50
2019-02-19T21:36:19.367Z,69.70
2019-02-19T21:41:24.991Z,69.20
2019-02-19T21:46:30.542Z,69.20
2019-02-19T21:51:36.752Z,68.70
2019-02-19T21:56:42.454Z,67.90
2019-02-19T22:01:48.016Z,68.10
2019-02-19T22:06:53.686Z,68.20
2019-02-19T22:11:59.244Z,68.20
2019-02-19T22:17:04.743Z,68.60
2019-02-19T22:22:12.165Z,67.70
2019-02-19T22:27:17.660Z,69.00
2019-02-19T22:32:23.144Z,69.50
2019-02-19T22:37:28.705Z,70.50
2019-02-19T22:42:34.285Z,70.30
2019-02-19T22:47:39.816Z,70.50
2019-02-19T22:52:45.469Z,70.90
2019-02-19T22:57:51.044Z,70.50
2019-02-19T23:02:56.830Z,71.00
2019-02-19T23:08:02.431Z,70.70
2019-02-19T23:13:09.514Z,69.80
2019-02-19T23:18:16.167Z,68.70
2019-02-19T23:23:21.767Z,70.40
2019-02-19T23:28:27.360Z,70.50
2019-02-19T23:33:32.981Z,70.90
2019-02-19T23:38:38.536Z,70.70
2019-02-19T23:43:45.256Z,71.70
2019-02-19T23:48:50.815Z,70.20
2019-02-19T23:53:56.430Z,70.60
2019-02-19T23:59:01.945Z,71.00
